Time;durP1;ratioP1;P1;durP2;ratioP2;P2;SDS_P1;SDS_P2;PMS_P1;PMS_P2;Temp;Humidity;BMP_temperature;BMP_pressure;BME280_temperature;BME280_humidity;BME280_pressure;Samples;Min_cycle;Max_cycle;Signal;HPM_P1;HPM_P2
2022/07/11 00:02:28;;;;;;;1999.90;999.90;;;;;;;;;;5034813;27;20405;-68
2022/07/11 00:04:56;;;;;;;1999.90;999.90;;;;;;;;;;5019344;27;20523;-69
2022/07/11 00:07:24;;;;;;;1999.90;999.90;;;;;;;;;;5037089;27;21538;-68
2022/07/11 00:09:52;;;;;;;1999.90;999.90;;;;;;;;;;5026533;27;20409;-68
2022/07/11 00:12:21;;;;;;;1999.90;999.90;;;;;;;;;;5037715;27;20477;-68
2022/07/11 00:14:49;;;;;;;1999.90;999.90;;;;;;;;;;5034775;27;20782;-68
2022/07/11 00:17:17;;;;;;;1999.90;999.90;;;;;;;;;;5034956;27;20507;-69
2022/07/11 00:19:46;;;;;;;1999.90;999.90;;;;;;;;;;5031904;27;20395;-69
2022/07/11 00:22:14;;;;;;;1999.90;999.90;;;;;;;;;;5038448;27;20933;-69
2022/07/11 00:24:42;;;;;;;1999.90;999.90;;;;;;;;;;5038610;27;20511;-68
2022/07/11 00:27:10;;;;;;;1999.90;999.90;;;;;;;;;;5033270;27;20511;-69
2022/07/11 00:29:38;;;;;;;1999.90;999.90;;;;;;;;;;5035491;27;20487;-68
2022/07/11 00:32:06;;;;;;;1999.90;999.90;;;;;;;;;;5035663;27;20454;-68
2022/07/11 00:34:34;;;;;;;1999.90;999.90;;;;;;;;;;5039093;27;20425;-68
2022/07/11 00:37:04;;;;;;;1999.90;999.90;;;;;;;;;;5034478;27;20413;-69
2022/07/11 00:39:32;;;;;;;1999.90;999.90;;;;;;;;;;5034166;27;20391;-69
2022/07/11 00:42:00;;;;;;;1999.90;999.90;;;;;;;;;;5035360;27;20393;-68
2022/07/11 00:44:28;;;;;;;1999.90;999.90;;;;;;;;;;5018954;27;20454;-68
2022/07/11 00:46:56;;;;;;;1999.90;999.90;;;;;;;;;;5036238;27;20520;-69
2022/07/11 00:49:24;;;;;;;1999.90;999.90;;;;;;;;;;5034057;27;20397;-68
2022/07/11 00:51:51;;;;;;;1999.90;999.90;;;;;;;;;;5033714;27;21248;-69
2022/07/11 00:54:22;;;;;;;1999.90;999.90;;;;;;;;;;5037191;27;20412;-68
2022/07/11 00:56:50;;;;;;;1999.90;999.90;;;;;;;;;;5036243;27;20450;-69
2022/07/11 00:59:18;;;;;;;1999.90;999.90;;;;;;;;;;5035300;27;20487;-68
2022/07/11 01:01:46;;;;;;;1999.90;999.90;;;;;;;;;;5033774;27;20405;-67
2022/07/11 01:04:14;;;;;;;1999.90;999.90;;;;;;;;;;5035772;27;20405;-69
2022/07/11 01:06:42;;;;;;;1999.90;999.90;;;;;;;;;;5034320;27;20412;-69
2022/07/11 01:09:10;;;;;;;1999.90;999.90;;;;;;;;;;5031215;27;20473;-68
2022/07/11 01:11:39;;;;;;;1999.90;999.90;;;;;;;;;;5039057;27;20780;-69
2022/07/11 01:14:07;;;;;;;1999.90;999.90;;;;;;;;;;5038669;27;20413;-69
2022/07/11 01:16:35;;;;;;;1999.90;999.90;;;;;;;;;;5036782;27;20428;-69
2022/07/11 01:19:03;;;;;;;1999.90;999.90;;;;;;;;;;5034462;27;20495;-68
2022/07/11 01:21:31;;;;;;;1999.90;999.90;;;;;;;;;;5020241;27;20408;-69
2022/07/11 01:24:02;;;;;;;1999.90;999.90;;;;;;;;;;5037070;27;20391;-69
2022/07/11 01:26:30;;;;;;;1999.90;999.90;;;;;;;;;;5036049;27;20493;-69
2022/07/11 01:29:05;;;;;;;1999.90;999.90;;;;;;;;;;5034445;27;20496;-69
2022/07/11 01:31:33;;;;;;;1999.90;999.90;;;;;;;;;;5026605;27;20404;-68
2022/07/11 01:34:01;;;;;;;1999.90;999.90;;;;;;;;;;5035378;27;20921;-69
2022/07/11 01:36:29;;;;;;;1999.90;999.90;;;;;;;;;;5034611;27;20578;-69
2022/07/11 01:38:57;;;;;;;1999.90;999.90;;;;;;;;;;5031944;27;21619;-72
2022/07/11 01:41:26;;;;;;;1999.90;999.90;;;;;;;;;;5027874;27;20400;-70
2022/07/11 01:43:54;;;;;;;1999.90;999.90;;;;;;;;;;5032488;27;20411;-69
2022/07/11 01:46:22;;;;;;;1999.90;999.90;;;;;;;;;;5035091;27;21372;-69
2022/07/11 01:48:50;;;;;;;1999.90;999.90;;;;;;;;;;5035246;27;20424;-69
2022/07/11 01:51:18;;;;;;;1999.90;999.90;;;;;;;;;;5028163;27;20430;-68
2022/07/11 01:53:46;;;;;;;1999.90;999.90;;;;;;;;;;5037855;27;20396;-69
2022/07/11 01:56:14;;;;;;;1999.90;999.90;;;;;;;;;;5035485;27;20424;-69
2022/07/11 01:58:50;;;;;;;1999.90;999.90;;;;;;;;;;5019801;27;20424;-69
2022/07/11 02:01:18;;;;;;;1999.90;999.90;;;;;;;;;;5030864;27;21003;-67
2022/07/11 02:03:46;;;;;;;1999.90;999.90;;;;;;;;;;5035452;27;20454;-68
2022/07/11 02:06:14;;;;;;;1999.90;999.90;;;;;;;;;;5034761;27;20420;-68
2022/07/11 02:08:42;;;;;;;1999.90;999.90;;;;;;;;;;5034388;27;20432;-68
2022/07/11 02:11:10;;;;;;;1999.90;999.90;;;;;;;;;;5037726;27;20439;-68
2022/07/11 02:13:38;;;;;;;1999.90;999.90;;;;;;;;;;5033061;27;20393;-68
2022/07/11 02:16:08;;;;;;;1999.90;999.90;;;;;;;;;;5032435;27;20420;-69
2022/07/11 02:18:36;;;;;;;1999.90;999.90;;;;;;;;;;5015997;27;20797;-68
2022/07/11 02:21:04;;;;;;;1999.90;999.90;;;;;;;;;;5033071;27;20408;-68
2022/07/11 02:23:32;;;;;;;1999.90;999.90;;;;;;;;;;5023133;27;20424;-68
2022/07/11 02:26:00;;;;;;;1999.90;999.90;;;;;;;;;;5036024;27;20416;-69
2022/07/11 02:28:27;;;;;;;1999.90;999.90;;;;;;;;;;5039472;27;20440;-69
2022/07/11 02:30:55;;;;;;;1999.90;999.90;;;;;;;;;;5037631;27;20404;-68
2022/07/11 02:33:25;;;;;;;1999.90;999.90;;;;;;;;;;5026767;27;20400;-68
2022/07/11 02:35:52;;;;;;;1999.90;999.90;;;;;;;;;;5036645;27;20419;-68
2022/07/11 02:38:20;;;;;;;1999.90;999.90;;;;;;;;;;5039482;27;20499;-69
2022/07/11 02:40:48;;;;;;;1999.90;999.90;;;;;;;;;;5039313;27;20409;-68
2022/07/11 02:43:31;;;;;;;1999.90;999.90;;;;;;;;;;5037740;27;20621;-69
2022/07/11 02:45:59;;;;;;;1999.90;999.90;;;;;;;;;;5037472;27;20409;-69
2022/07/11 02:48:28;;;;;;;1999.90;999.90;;;;;;;;;;5038365;27;20483;-69
2022/07/11 02:50:56;;;;;;;1999.90;999.90;;;;;;;;;;5033334;27;20409;-69
2022/07/11 02:53:24;;;;;;;1999.90;999.90;;;;;;;;;;5038524;27;20501;-69
2022/07/11 02:55:52;;;;;;;1999.90;999.90;;;;;;;;;;5038091;27;20493;-69
2022/07/11 02:58:19;;;;;;;1999.90;999.90;;;;;;;;;;5040748;27;21555;-69
2022/07/11 03:00:47;;;;;;;1999.90;999.90;;;;;;;;;;5037273;27;20420;-69
2022/07/11 03:03:15;;;;;;;1999.90;999.90;;;;;;;;;;5037253;27;20981;-69
2022/07/11 03:05:44;;;;;;;1999.90;999.90;;;;;;;;;;5037387;27;20925;-68
2022/07/11 03:08:12;;;;;;;1999.90;999.90;;;;;;;;;;5038164;27;20415;-69
2022/07/11 03:10:40;;;;;;;1999.90;999.90;;;;;;;;;;5037371;27;20545;-68
2022/07/11 03:13:08;;;;;;;1999.90;999.90;;;;;;;;;;5028481;27;20933;-68
2022/07/11 03:15:35;;;;;;;1999.90;999.90;;;;;;;;;;5038338;27;20421;-69
2022/07/11 03:18:04;;;;;;;1999.90;999.90;;;;;;;;;;5040095;27;20399;-69
2022/07/11 03:20:32;;;;;;;1999.90;999.90;;;;;;;;;;5037604;27;21970;-69
2022/07/11 03:23:01;;;;;;;1999.90;999.90;;;;;;;;;;5040701;27;20403;-68
2022/07/11 03:25:29;;;;;;;1999.90;999.90;;;;;;;;;;5038733;27;20412;-69
2022/07/11 03:27:57;;;;;;;1999.90;999.90;;;;;;;;;;5037169;27;20476;-69
2022/07/11 03:30:25;;;;;;;1999.90;999.90;;;;;;;;;;5040648;27;20409;-69
2022/07/11 03:32:53;;;;;;;1999.90;999.90;;;;;;;;;;5033757;27;20414;-68
2022/07/11 03:38:07;;;;;;;1999.90;999.90;;;;;;;;;;5037381;27;20388;-67
2022/07/11 03:40:35;;;;;;;1999.90;999.90;;;;;;;;;;5038304;27;20405;-69
2022/07/11 03:43:03;;;;;;;1999.90;999.90;;;;;;;;;;5035553;27;20415;-68
2022/07/11 03:45:31;;;;;;;1999.90;999.90;;;;;;;;;;5039012;27;20425;-68
2022/07/11 03:47:59;;;;;;;1999.90;999.90;;;;;;;;;;5038542;27;20401;-69
2022/07/11 03:50:26;;;;;;;1999.90;999.90;;;;;;;;;;5036227;27;20434;-69
2022/07/11 03:52:54;;;;;;;1999.90;999.90;;;;;;;;;;5034059;27;20393;-68
2022/07/11 03:55:24;;;;;;;1999.90;999.90;;;;;;;;;;5034783;27;20919;-69
2022/07/11 03:57:52;;;;;;;1999.90;999.90;;;;;;;;;;5034729;27;20397;-69
2022/07/11 04:00:20;;;;;;;1999.90;999.90;;;;;;;;;;5037575;27;20512;-69
2022/07/11 04:02:48;;;;;;;1999.90;999.90;;;;;;;;;;5037002;27;20408;-68
2022/07/11 04:05:16;;;;;;;1999.90;999.90;;;;;;;;;;5036597;27;20404;-69
2022/07/11 04:07:44;;;;;;;1999.90;999.90;;;;;;;;;;5037082;27;20993;-69
2022/07/11 04:10:12;;;;;;;1999.90;999.90;;;;;;;;;;5035367;27;20992;-68
2022/07/11 04:12:41;;;;;;;1999.90;999.90;;;;;;;;;;5038285;27;20494;-69
2022/07/11 04:15:09;;;;;;;1999.90;999.90;;;;;;;;;;5019152;27;20507;-68
2022/07/11 04:17:37;;;;;;;1999.90;999.90;;;;;;;;;;5037234;27;20401;-69
2022/07/11 04:20:05;;;;;;;1999.90;999.90;;;;;;;;;;5034582;27;20499;-69
2022/07/11 04:22:33;;;;;;;1999.90;999.90;;;;;;;;;;5033170;27;20565;-69
2022/07/11 04:25:01;;;;;;;1999.90;999.90;;;;;;;;;;5035872;27;20602;-68
2022/07/11 04:27:29;;;;;;;1999.90;999.90;;;;;;;;;;5019940;27;20718;-68
2022/07/11 04:30:00;;;;;;;1999.90;999.90;;;;;;;;;;5034141;27;20389;-68
2022/07/11 04:32:28;;;;;;;1999.90;999.90;;;;;;;;;;5036342;27;20420;-68
2022/07/11 04:34:56;;;;;;;1999.90;999.90;;;;;;;;;;5035434;27;20503;-68
2022/07/11 04:37:26;;;;;;;1999.90;999.90;;;;;;;;;;5033936;27;20408;-68
2022/07/11 04:39:53;;;;;;;1999.90;999.90;;;;;;;;;;5002569;27;20404;-68
2022/07/11 04:42:21;;;;;;;1999.90;999.90;;;;;;;;;;5030595;27;21210;-68
2022/07/11 04:44:49;;;;;;;1999.90;999.90;;;;;;;;;;5031941;27;20424;-69
2022/07/11 04:47:19;;;;;;;1999.90;999.90;;;;;;;;;;5037630;27;20471;-68
2022/07/11 04:49:47;;;;;;;1999.90;999.90;;;;;;;;;;5024678;27;22187;-68
2022/07/11 04:52:15;;;;;;;1999.90;999.90;;;;;;;;;;5028603;27;21406;-69
2022/07/11 04:54:42;;;;;;;1999.90;999.90;;;;;;;;;;5030640;27;21030;-68
2022/07/11 04:57:11;;;;;;;1999.90;999.90;;;;;;;;;;5031349;27;20424;-67
2022/07/11 04:59:39;;;;;;;1999.90;999.90;;;;;;;;;;5032515;27;20400;-68
2022/07/11 05:02:07;;;;;;;1999.90;999.90;;;;;;;;;;5047733;27;20496;-69
2022/07/11 05:04:37;;;;;;;1999.90;999.90;;;;;;;;;;5032007;27;20420;-68
2022/07/11 05:07:05;;;;;;;1999.90;999.90;;;;;;;;;;5028210;27;20495;-69
2022/07/11 05:09:33;;;;;;;1999.90;999.90;;;;;;;;;;5024909;27;20970;-68
2022/07/11 05:12:01;;;;;;;1999.90;999.90;;;;;;;;;;5018222;27;20408;-68
2022/07/11 05:14:28;;;;;;;1999.90;999.90;;;;;;;;;;5027531;27;20417;-69
2022/07/11 05:16:56;;;;;;;1999.90;999.90;;;;;;;;;;5033328;27;20432;-69
2022/07/11 05:19:24;;;;;;;1999.90;999.90;;;;;;;;;;5038298;27;20399;-70
2022/07/11 05:21:54;;;;;;;1999.90;999.90;;;;;;;;;;5034639;27;20916;-69
2022/07/11 05:24:22;;;;;;;1999.90;999.90;;;;;;;;;;5037439;27;20496;-69
2022/07/11 05:26:49;;;;;;;1999.90;999.90;;;;;;;;;;5033438;27;20479;-69
2022/07/11 05:29:17;;;;;;;1999.90;999.90;;;;;;;;;;5109978;22;20395;-75
2022/07/11 05:31:50;;;;;;;1999.90;999.90;;;;;;;;;;5090612;27;20395;-75
2022/07/11 05:34:18;;;;;;;1999.90;999.90;;;;;;;;;;5090979;27;20403;-76
2022/07/11 05:36:46;;;;;;;1999.90;999.90;;;;;;;;;;5091328;27;21273;-76
2022/07/11 05:39:15;;;;;;;1999.90;999.90;;;;;;;;;;5091264;27;20396;-75
2022/07/11 05:41:43;;;;;;;1999.90;999.90;;;;;;;;;;5092823;27;20486;-76
2022/07/11 05:44:10;;;;;;;1999.90;999.90;;;;;;;;;;5093423;27;20582;-76
2022/07/11 05:46:39;;;;;;;1999.90;999.90;;;;;;;;;;5093886;27;20909;-76
2022/07/11 05:49:08;;;;;;;1999.90;999.90;;;;;;;;;;5093515;27;20386;-75
2022/07/11 05:51:36;;;;;;;1999.90;999.90;;;;;;;;;;5093743;27;20415;-75
2022/07/11 05:54:03;;;;;;;1999.90;999.90;;;;;;;;;;5094646;27;20429;-75
2022/07/11 05:56:33;;;;;;;1999.90;999.90;;;;;;;;;;5096872;27;20407;-75
2022/07/11 05:59:00;;;;;;;1999.90;999.90;;;;;;;;;;5094769;27;20422;-76
2022/07/11 06:01:28;;;;;;;1999.90;999.90;;;;;;;;;;5095140;27;20387;-76
2022/07/11 06:04:03;;;;;;;1999.90;999.90;;;;;;;;;;5094269;27;20462;-76
2022/07/11 06:06:31;;;;;;;1999.90;999.90;;;;;;;;;;5094869;27;20958;-76
2022/07/11 06:08:59;;;;;;;1999.90;999.90;;;;;;;;;;5094803;27;21029;-74
2022/07/11 06:11:27;;;;;;;1999.90;999.90;;;;;;;;;;5096012;27;20407;-75
2022/07/11 06:13:56;;;;;;;1999.90;999.90;;;;;;;;;;5094760;27;20404;-75
2022/07/11 06:16:27;;;;;;;1999.90;999.90;;;;;;;;;;5090918;27;21313;-75
2022/07/11 06:18:56;;;;;;;1999.90;999.90;;;;;;;;;;5094930;27;20399;-76
2022/07/11 06:21:23;;;;;;;1999.90;999.90;;;;;;;;;;5092131;27;20921;-75
2022/07/11 06:23:51;;;;;;;1999.90;999.90;;;;;;;;;;5093260;27;20422;-75
2022/07/11 06:26:19;;;;;;;1999.90;999.90;;;;;;;;;;5095774;27;20919;-75
2022/07/11 06:28:47;;;;;;;1999.90;999.90;;;;;;;;;;5094817;27;20431;-75
2022/07/11 06:31:17;;;;;;;1999.90;999.90;;;;;;;;;;5093805;27;20415;-76
2022/07/11 06:33:45;;;;;;;1999.90;999.90;;;;;;;;;;5096184;27;20882;-74
2022/07/11 06:36:14;;;;;;;1999.90;999.90;;;;;;;;;;5093833;27;20443;-75
2022/07/11 06:38:42;;;;;;;1999.90;999.90;;;;;;;;;;5097280;27;20430;-76
2022/07/11 06:41:10;;;;;;;1999.90;999.90;;;;;;;;;;5095148;27;21023;-76
2022/07/11 06:43:38;;;;;;;1999.90;999.90;;;;;;;;;;5078260;27;20418;-76
2022/07/11 06:46:06;;;;;;;1999.90;999.90;;;;;;;;;;5094264;27;20395;-75
2022/07/11 06:48:35;;;;;;;1999.90;999.90;;;;;;;;;;5096674;27;20413;-75
2022/07/11 06:51:03;;;;;;;1999.90;999.90;;;;;;;;;;5093934;27;20391;-75
2022/07/11 06:53:33;;;;;;;1999.90;999.90;;;;;;;;;;5092240;27;20415;-75
2022/07/11 06:56:02;;;;;;;1999.90;999.90;;;;;;;;;;5094258;27;20874;-76
2022/07/11 06:58:32;;;;;;;1999.90;999.90;;;;;;;;;;5098656;27;20871;-76
2022/07/11 07:01:01;;;;;;;1999.90;999.90;;;;;;;;;;5097669;27;20420;-75
2022/07/11 07:03:29;;;;;;;1999.90;999.90;;;;;;;;;;5099823;27;20519;-75
2022/07/11 07:05:58;;;;;;;1999.90;999.90;;;;;;;;;;5097788;27;20441;-75
2022/07/11 07:08:27;;;;;;;1999.90;999.90;;;;;;;;;;5096106;27;20422;-76
2022/07/11 07:10:55;;;;;;;1999.90;999.90;;;;;;;;;;5094302;27;20388;-75
2022/07/11 07:13:25;;;;;;;1999.90;999.90;;;;;;;;;;5095524;27;20402;-75
2022/07/11 07:15:53;;;;;;;1999.90;999.90;;;;;;;;;;5092971;27;20406;-76
2022/07/11 07:18:21;;;;;;;1999.90;999.90;;;;;;;;;;5096059;27;20407;-77
2022/07/11 07:20:49;;;;;;;1999.90;999.90;;;;;;;;;;5075940;28;20976;-76
2022/07/11 07:23:19;;;;;;;1999.90;999.90;;;;;;;;;;5092930;27;20436;-76
2022/07/11 07:25:46;;;;;;;1999.90;999.90;;;;;;;;;;5077011;28;20408;-75
2022/07/11 07:28:14;;;;;;;1999.90;999.90;;;;;;;;;;5076720;27;20416;-74
2022/07/11 07:30:42;;;;;;;1999.90;999.90;;;;;;;;;;5075863;28;20425;-75
2022/07/11 07:33:12;;;;;;;1999.90;999.90;;;;;;;;;;5075964;27;20442;-75
2022/07/11 07:35:39;;;;;;;1999.90;999.90;;;;;;;;;;5077013;28;20404;-75
2022/07/11 07:38:07;;;;;;;1999.90;999.90;;;;;;;;;;5077320;27;20513;-73
2022/07/11 07:40:37;;;;;;;1999.90;999.90;;;;;;;;;;5076163;28;20532;-76
2022/07/11 07:43:06;;;;;;;1999.90;999.90;;;;;;;;;;5074343;27;20403;-76
2022/07/11 07:45:35;;;;;;;1999.90;999.90;;;;;;;;;;5093918;27;20375;-76
2022/07/11 07:48:03;;;;;;;1999.90;999.90;;;;;;;;;;5075290;27;20482;-75
2022/07/11 07:50:31;;;;;;;1999.90;999.90;;;;;;;;;;5094023;27;21288;-76
2022/07/11 07:52:59;;;;;;;1999.90;999.90;;;;;;;;;;5093162;27;20399;-76
2022/07/11 07:55:26;;;;;;;1999.90;999.90;;;;;;;;;;5092291;27;20443;-76
2022/07/11 07:57:56;;;;;;;1999.90;999.90;;;;;;;;;;5093593;27;20425;-76
2022/07/11 08:03:09;;;;;;;1999.90;999.90;;;;;;;;;;5095366;27;20431;-74
2022/07/11 08:05:37;;;;;;;1999.90;999.90;;;;;;;;;;5093267;27;20985;-74
2022/07/11 08:08:05;;;;;;;1999.90;999.90;;;;;;;;;;5094874;27;20407;-74
2022/07/11 08:10:33;;;;;;;1999.90;999.90;;;;;;;;;;5091959;27;20400;-75
2022/07/11 08:13:02;;;;;;;1999.90;999.90;;;;;;;;;;5094037;27;20411;-74
2022/07/11 08:15:29;;;;;;;1999.90;999.90;;;;;;;;;;5074588;28;20878;-74
2022/07/11 08:17:57;;;;;;;1999.90;999.90;;;;;;;;;;5094317;27;20418;-74
2022/07/11 08:20:25;;;;;;;1999.90;999.90;;;;;;;;;;5091899;27;20414;-75
2022/07/11 08:22:53;;;;;;;1999.90;999.90;;;;;;;;;;5092655;27;20415;-75
2022/07/11 08:25:21;;;;;;;1999.90;999.90;;;;;;;;;;5075691;27;20395;-75
2022/07/11 08:27:48;;;;;;;1999.90;999.90;;;;;;;;;;5090924;27;20418;-75
2022/07/11 08:30:18;;;;;;;1999.90;999.90;;;;;;;;;;5090887;27;21325;-75
2022/07/11 08:32:46;;;;;;;1999.90;999.90;;;;;;;;;;5093002;27;20410;-75
2022/07/11 08:35:15;;;;;;;1999.90;999.90;;;;;;;;;;5092819;27;20393;-75
2022/07/11 08:37:43;;;;;;;1999.90;999.90;;;;;;;;;;5094116;27;21458;-75
2022/07/11 08:40:11;;;;;;;1999.90;999.90;;;;;;;;;;5091663;27;20403;-75
2022/07/11 08:42:41;;;;;;;1999.90;999.90;;;;;;;;;;5110240;27;20426;-76
2022/07/11 08:45:11;;;;;;;1999.90;999.90;;;;;;;;;;5073972;27;20822;-74
2022/07/11 08:47:40;;;;;;;1999.90;999.90;;;;;;;;;;5089329;27;20423;-75
2022/07/11 08:50:08;;;;;;;1999.90;999.90;;;;;;;;;;5092978;27;20422;-75
2022/07/11 08:52:37;;;;;;;1999.90;999.90;;;;;;;;;;5090321;27;20492;-75
2022/07/11 08:55:06;;;;;;;1999.90;999.90;;;;;;;;;;5093936;27;20397;-75
2022/07/11 08:57:34;;;;;;;1999.90;999.90;;;;;;;;;;5091488;27;20410;-75
2022/07/11 09:00:05;;;;;;;1999.90;999.90;;;;;;;;;;5092364;27;20395;-75
2022/07/11 09:02:33;;;;;;;1999.90;999.90;;;;;;;;;;5090326;27;20399;-75
2022/07/11 09:05:05;;;;;;;1999.90;999.90;;;;;;;;;;5090542;27;20739;-76
2022/07/11 09:07:33;;;;;;;1999.90;999.90;;;;;;;;;;5094888;27;20415;-75
2022/07/11 09:10:01;;;;;;;1999.90;999.90;;;;;;;;;;5096094;27;20390;-75
2022/07/11 09:12:28;;;;;;;1999.90;999.90;;;;;;;;;;5089533;27;21323;-76
2022/07/11 09:14:56;;;;;;;1999.90;999.90;;;;;;;;;;5093744;27;20858;-75
2022/07/11 09:17:27;;;;;;;1999.90;999.90;;;;;;;;;;5092620;27;20866;-75
2022/07/11 09:19:55;;;;;;;1999.90;999.90;;;;;;;;;;5089911;27;20398;-73
2022/07/11 09:25:30;;;;;;;1999.90;999.90;;;;;;;;;;5092907;27;20420;-75
2022/07/11 09:28:01;;;;;;;1999.90;999.90;;;;;;;;;;5092110;27;20381;-75
2022/07/11 09:30:30;;;;;;;1999.90;999.90;;;;;;;;;;5090292;27;20525;-75
2022/07/11 09:32:59;;;;;;;1999.90;999.90;;;;;;;;;;5092444;27;20415;-74
2022/07/11 09:35:27;;;;;;;1999.90;999.90;;;;;;;;;;5093171;27;20384;-73
2022/07/11 09:37:57;;;;;;;1999.90;999.90;;;;;;;;;;5075528;27;20401;-75
2022/07/11 09:40:26;;;;;;;1999.90;999.90;;;;;;;;;;5106626;27;20394;-76
2022/07/11 09:42:55;;;;;;;1999.90;999.90;;;;;;;;;;5091589;27;20410;-74
2022/07/11 09:45:24;;;;;;;1999.90;999.90;;;;;;;;;;5091177;27;20403;-76
2022/07/11 09:47:53;;;;;;;1999.90;999.90;;;;;;;;;;5092001;27;20482;-75
2022/07/11 09:50:21;;;;;;;1999.90;999.90;;;;;;;;;;5094329;27;20479;-76
2022/07/11 09:53:00;;;;;;;1999.90;999.90;;;;;;;;;;5093238;27;20896;-75
2022/07/11 09:55:29;;;;;;;1999.90;999.90;;;;;;;;;;5092641;27;20401;-75
2022/07/11 09:58:17;;;;;;;1999.90;999.90;;;;;;;;;;5093418;27;20426;-76
2022/07/11 10:00:46;;;;;;;1999.90;999.90;;;;;;;;;;5091273;27;20401;-75
2022/07/11 10:03:13;;;;;;;1999.90;999.90;;;;;;;;;;5106917;27;20415;-76
2022/07/11 10:06:01;;;;;;;1999.90;999.90;;;;;;;;;;5107440;27;20403;-76
2022/07/11 10:08:33;;;;;;;1999.90;999.90;;;;;;;;;;5093815;27;20976;-76
2022/07/11 10:11:01;;;;;;;1999.90;999.90;;;;;;;;;;5090074;27;20456;-76
2022/07/11 10:13:29;;;;;;;1999.90;999.90;;;;;;;;;;5091531;27;20605;-76
2022/07/11 10:15:57;;;;;;;1999.90;999.90;;;;;;;;;;5089101;27;20387;-75
2022/07/11 10:18:29;;;;;;;1999.90;999.90;;;;;;;;;;5092324;27;20465;-76
2022/07/11 10:20:59;;;;;;;1999.90;999.90;;;;;;;;;;5107371;27;20403;-75
2022/07/11 10:23:29;;;;;;;1999.90;999.90;;;;;;;;;;5091526;27;20423;-76
2022/07/11 10:26:00;;;;;;;1999.90;999.90;;;;;;;;;;5091487;27;20395;-75
2022/07/11 10:28:33;;;;;;;1999.90;999.90;;;;;;;;;;5093983;27;20415;-74
2022/07/11 10:31:01;;;;;;;1999.90;999.90;;;;;;;;;;5076593;28;21137;-76
2022/07/11 10:33:29;;;;;;;1999.90;999.90;;;;;;;;;;5096783;27;20956;-76
2022/07/11 10:35:58;;;;;;;1999.90;999.90;;;;;;;;;;5095421;27;20411;-76
2022/07/11 10:38:25;;;;;;;1999.90;999.90;;;;;;;;;;5096925;27;20826;-76
2022/07/11 10:40:54;;;;;;;1999.90;999.90;;;;;;;;;;5093028;27;20403;-76
2022/07/11 10:43:40;;;;;;;1999.90;999.90;;;;;;;;;;5093121;27;20407;-75
2022/07/11 10:46:08;;;;;;;1999.90;999.90;;;;;;;;;;5076134;27;20407;-76
2022/07/11 10:48:52;;;;;;;1999.90;999.90;;;;;;;;;;5094753;27;20407;-75
2022/07/11 10:51:25;;;;;;;1999.90;999.90;;;;;;;;;;5092705;27;20502;-76
2022/07/11 10:53:54;;;;;;;1999.90;999.90;;;;;;;;;;5094166;27;20411;-76
2022/07/11 10:56:35;;;;;;;1999.90;999.90;;;;;;;;;;5093341;27;20828;-76
2022/07/11 10:59:22;;;;;;;1999.90;999.90;;;;;;;;;;5095194;27;20391;-76
2022/07/11 11:02:11;;;;;;;1999.90;999.90;;;;;;;;;;5109100;27;20890;-75
2022/07/11 11:04:43;;;;;;;1999.90;999.90;;;;;;;;;;5095033;27;20480;-75
2022/07/11 11:07:26;;;;;;;1999.90;999.90;;;;;;;;;;5092435;27;21125;-75
2022/07/11 11:09:54;;;;;;;1999.90;999.90;;;;;;;;;;5096048;27;20866;-74
2022/07/11 11:12:41;;;;;;;1999.90;999.90;;;;;;;;;;5093014;27;20430;-75
2022/07/11 11:15:28;;;;;;;1999.90;999.90;;;;;;;;;;5075709;27;20476;-75
2022/07/11 11:17:57;;;;;;;1999.90;999.90;;;;;;;;;;5094620;27;20780;-75
2022/07/11 11:20:31;;;;;;;1999.90;999.90;;;;;;;;;;5110620;27;20392;-75
2022/07/11 11:23:09;;;;;;;1999.90;999.90;;;;;;;;;;5093805;27;20388;-76
2022/07/11 11:25:37;;;;;;;1999.90;999.90;;;;;;;;;;5093802;27;21276;-75
2022/07/11 11:28:05;;;;;;;1999.90;999.90;;;;;;;;;;5093244;27;20410;-74
2022/07/11 11:30:33;;;;;;;1999.90;999.90;;;;;;;;;;5092428;27;20411;-76
2022/07/11 11:33:08;;;;;;;1999.90;999.90;;;;;;;;;;5110857;27;20467;-75
2022/07/11 11:35:36;;;;;;;1999.90;999.90;;;;;;;;;;5092603;27;20408;-75
2022/07/11 11:38:04;;;;;;;1999.90;999.90;;;;;;;;;;5094763;27;20410;-76
2022/07/11 11:40:31;;;;;;;1999.90;999.90;;;;;;;;;;5094731;27;20463;-75
2022/07/11 11:42:59;;;;;;;1999.90;999.90;;;;;;;;;;5093858;27;20406;-76
2022/07/11 11:45:27;;;;;;;1999.90;999.90;;;;;;;;;;5092666;27;20395;-76
2022/07/11 11:47:55;;;;;;;1999.90;999.90;;;;;;;;;;5076110;27;20435;-76
2022/07/11 11:50:24;;;;;;;1999.90;999.90;;;;;;;;;;5074833;27;20384;-76
2022/07/11 11:52:52;;;;;;;1999.90;999.90;;;;;;;;;;5094462;27;20401;-76
2022/07/11 11:55:20;;;;;;;1999.90;999.90;;;;;;;;;;5092978;27;20433;-76
2022/07/11 11:57:48;;;;;;;1999.90;999.90;;;;;;;;;;5109838;27;20394;-76
2022/07/11 12:00:26;;;;;;;1999.90;999.90;;;;;;;;;;5093390;27;20410;-76
2022/07/11 12:03:14;;;;;;;1999.90;999.90;;;;;;;;;;5092515;27;20400;-76
2022/07/11 12:05:53;;;;;;;1999.90;999.90;;;;;;;;;;5090771;27;20422;-76
2022/07/11 12:08:25;;;;;;;1999.90;999.90;;;;;;;;;;5099547;27;20415;-74
2022/07/11 12:10:53;;;;;;;1999.90;999.90;;;;;;;;;;5085009;27;20415;-76
2022/07/11 12:13:21;;;;;;;1999.90;999.90;;;;;;;;;;5089010;27;21124;-75
2022/07/11 12:18:37;;;;;;;1999.90;999.90;;;;;;;;;;5093425;27;20406;-76
2022/07/11 12:21:11;;;;;;;1999.90;999.90;;;;;;;;;;5091390;27;20411;-76
2022/07/11 12:23:39;;;;;;;1999.90;999.90;;;;;;;;;;5092147;27;20505;-76
2022/07/11 12:26:07;;;;;;;1999.90;999.90;;;;;;;;;;5088424;27;20520;-75
2022/07/11 12:28:36;;;;;;;1999.90;999.90;;;;;;;;;;5072359;27;20445;-76
2022/07/11 12:31:05;;;;;;;1999.90;999.90;;;;;;;;;;5070843;28;20411;-76
2022/07/11 12:33:34;;;;;;;1999.90;999.90;;;;;;;;;;5092830;27;20474;-76
2022/07/11 12:36:03;;;;;;;1999.90;999.90;;;;;;;;;;5074568;27;20399;-76
2022/07/11 12:38:46;;;;;;;1999.90;999.90;;;;;;;;;;5093365;27;20412;-76
2022/07/11 12:41:16;;;;;;;1999.90;999.90;;;;;;;;;;5092649;27;20394;-76
2022/07/11 12:46:32;;;;;;;1999.90;999.90;;;;;;;;;;5089607;27;20430;-75
2022/07/11 12:49:03;;;;;;;1999.90;999.90;;;;;;;;;;5091784;27;20413;-76
2022/07/11 12:51:34;;;;;;;1999.90;999.90;;;;;;;;;;5068705;28;20399;-76
2022/07/11 12:54:05;;;;;;;1999.90;999.90;;;;;;;;;;5090960;27;21184;-76
2022/07/11 12:56:35;;;;;;;1999.90;999.90;;;;;;;;;;5110355;27;21263;-75
2022/07/11 12:59:04;;;;;;;1999.90;999.90;;;;;;;;;;5073279;27;20413;-75
2022/07/11 13:01:54;;;;;;;1999.90;999.90;;;;;;;;;;5087415;27;20481;-75
2022/07/11 13:04:31;;;;;;;1999.90;999.90;;;;;;;;;;5068180;28;20401;-71
2022/07/11 13:09:45;;;;;;;1999.90;999.90;;;;;;;;;;5086339;27;20829;-71
2022/07/11 13:12:14;;;;;;;1999.90;999.90;;;;;;;;;;5084076;27;20419;-68
2022/07/11 13:17:27;;;;;;;1999.90;999.90;;;;;;;;;;5087957;27;21300;-75
2022/07/11 13:19:56;;;;;;;1999.90;999.90;;;;;;;;;;5087153;27;20508;-74
2022/07/11 13:22:24;;;;;;;1999.90;999.90;;;;;;;;;;5081264;27;20478;-76
2022/07/11 13:24:52;;;;;;;1999.90;999.90;;;;;;;;;;5088031;27;20688;-74
2022/07/11 13:27:21;;;;;;;1999.90;999.90;;;;;;;;;;5066994;28;20404;-75
2022/07/11 13:29:49;;;;;;;1999.90;999.90;;;;;;;;;;5087518;27;21723;-76
2022/07/11 13:32:17;;;;;;;1999.90;999.90;;;;;;;;;;5080919;27;20399;-76
2022/07/11 13:34:45;;;;;;;1999.90;999.90;;;;;;;;;;5078535;27;20474;-75
2022/07/11 13:37:13;;;;;;;1999.90;999.90;;;;;;;;;;5087334;27;20431;-75
2022/07/11 13:39:43;;;;;;;1999.90;999.90;;;;;;;;;;5090709;27;22213;-75
2022/07/11 13:42:11;;;;;;;1999.90;999.90;;;;;;;;;;5088517;27;20904;-76
2022/07/11 13:44:40;;;;;;;1999.90;999.90;;;;;;;;;;5091966;27;20427;-77
2022/07/11 13:47:08;;;;;;;1999.90;999.90;;;;;;;;;;5085407;27;20406;-74
2022/07/11 13:49:36;;;;;;;1999.90;999.90;;;;;;;;;;5088721;27;20415;-74
2022/07/11 13:52:04;;;;;;;1999.90;999.90;;;;;;;;;;5085998;27;21796;-77
2022/07/11 13:54:32;;;;;;;1999.90;999.90;;;;;;;;;;5088930;27;21271;-76
2022/07/11 13:57:00;;;;;;;1999.90;999.90;;;;;;;;;;5072647;27;21273;-75
2022/07/11 13:59:27;;;;;;;1999.90;999.90;;;;;;;;;;5105571;27;20391;-76
2022/07/11 14:01:56;;;;;;;1999.90;999.90;;;;;;;;;;5088931;27;20415;-76
2022/07/11 14:04:24;;;;;;;1999.90;999.90;;;;;;;;;;5089601;27;20383;-77
2022/07/11 14:06:56;;;;;;;1999.90;999.90;;;;;;;;;;5093251;27;20512;-77
2022/07/11 14:09:24;;;;;;;1999.90;999.90;;;;;;;;;;5094235;27;21178;-77
2022/07/11 14:11:52;;;;;;;1999.90;999.90;;;;;;;;;;5110022;27;20387;-76
2022/07/11 14:14:19;;;;;;;1999.90;999.90;;;;;;;;;;5095243;27;20415;-76